< < Back
Terminal Aerodrome Forecast


Current Version              Previous Versions:   1  2  3  4  5  6  7  8  9  

Terminal Aerodrome Forecast

728
FTUS44 KBMX 221700
TAFMGM
TAF
KMGM 221726Z 2218/2318 02008KT P6SM SKC
     FM230000 36003KT P6SM SKC=

Latest METAR

566
SAUS80 KWBC 231800 RRC
MTRMGM
METAR KMGM 231753Z 00000KT 10SM CLR 21/04 A3010 RMK AO2 SLP190 T02060044
10206 20072 58019


USA.gov is the U.S. government's official web portal to all federal, state and local government web resources and services.